sensor_id;sensor_type;location;lat;lon;timestamp;P1;durP1;ratioP1;P2;durP2;ratioP2
37284;SDS011;23172;53.550;9.964;2023-02-28T00:02:53;72.93;;;66.95;;
37284;SDS011;23172;53.550;9.964;2023-02-28T00:07:56;51.72;;;47.70;;
37284;SDS011;23172;53.550;9.964;2023-02-28T00:12:59;47.22;;;39.35;;
37284;SDS011;23172;53.550;9.964;2023-02-28T00:18:02;54.65;;;48.88;;
37284;SDS011;23172;53.550;9.964;2023-02-28T00:23:05;63.38;;;57.90;;
37284;SDS011;23172;53.550;9.964;2023-02-28T00:28:07;51.05;;;46.78;;
37284;SDS011;23172;53.550;9.964;2023-02-28T00:33:09;59.45;;;55.08;;
37284;SDS011;23172;53.550;9.964;2023-02-28T00:38:13;55.83;;;46.78;;
37284;SDS011;23172;53.550;9.964;2023-02-28T00:43:14;33.63;;;27.65;;
37284;SDS011;23172;53.550;9.964;2023-02-28T00:48:16;31.33;;;26.13;;
37284;SDS011;23172;53.550;9.964;2023-02-28T00:53:19;42.35;;;38.65;;
37284;SDS011;23172;53.550;9.964;2023-02-28T00:58:22;41.70;;;30.63;;
37284;SDS011;23172;53.550;9.964;2023-02-28T01:03:23;47.10;;;42.42;;
37284;SDS011;23172;53.550;9.964;2023-02-28T01:08:27;29.98;;;27.63;;
37284;SDS011;23172;53.550;9.964;2023-02-28T01:13:29;36.55;;;32.42;;
37284;SDS011;23172;53.550;9.964;2023-02-28T01:18:30;43.22;;;39.63;;
37284;SDS011;23172;53.550;9.964;2023-02-28T01:23:34;25.70;;;22.98;;
37284;SDS011;23172;53.550;9.964;2023-02-28T01:28:36;25.17;;;23.13;;
37284;SDS011;23172;53.550;9.964;2023-02-28T01:33:38;25.42;;;20.38;;
37284;SDS011;23172;53.550;9.964;2023-02-28T01:38:41;18.20;;;16.25;;
37284;SDS011;23172;53.550;9.964;2023-02-28T01:43:55;28.75;;;16.08;;
37284;SDS011;23172;53.550;9.964;2023-02-28T01:49:00;33.80;;;23.77;;
37284;SDS011;23172;53.550;9.964;2023-02-28T01:54:08;35.35;;;25.05;;
37284;SDS011;23172;53.550;9.964;2023-02-28T01:59:16;21.05;;;19.02;;
37284;SDS011;23172;53.550;9.964;2023-02-28T02:04:24;39.47;;;29.85;;
37284;SDS011;23172;53.550;9.964;2023-02-28T02:09:33;35.17;;;22.98;;
37284;SDS011;23172;53.550;9.964;2023-02-28T02:14:41;35.90;;;26.25;;
37284;SDS011;23172;53.550;9.964;2023-02-28T02:25:41;16.10;;;13.85;;
37284;SDS011;23172;53.550;9.964;2023-02-28T02:36:32;24.90;;;22.20;;
37284;SDS011;23172;53.550;9.964;2023-02-28T02:41:39;13.68;;;11.38;;
37284;SDS011;23172;53.550;9.964;2023-02-28T02:46:44;26.27;;;18.55;;
37284;SDS011;23172;53.550;9.964;2023-02-28T02:51:48;18.00;;;15.27;;
37284;SDS011;23172;53.550;9.964;2023-02-28T02:56:53;55.50;;;34.88;;
37284;SDS011;23172;53.550;9.964;2023-02-28T03:01:57;114.60;;;57.75;;
37284;SDS011;23172;53.550;9.964;2023-02-28T03:07:01;103.57;;;53.60;;
37284;SDS011;23172;53.550;9.964;2023-02-28T03:12:04;67.38;;;36.80;;
37284;SDS011;23172;53.550;9.964;2023-02-28T03:17:20;56.92;;;29.63;;
37284;SDS011;23172;53.550;9.964;2023-02-28T03:22:36;52.47;;;27.95;;
37284;SDS011;23172;53.550;9.964;2023-02-28T03:27:52;38.20;;;19.48;;
37284;SDS011;23172;53.550;9.964;2023-02-28T03:33:03;26.05;;;16.13;;
37284;SDS011;23172;53.550;9.964;2023-02-28T03:38:12;20.42;;;12.27;;
37284;SDS011;23172;53.550;9.964;2023-02-28T03:43:19;15.60;;;10.27;;
37284;SDS011;23172;53.550;9.964;2023-02-28T03:48:25;17.77;;;9.73;;
37284;SDS011;23172;53.550;9.964;2023-02-28T03:53:34;13.88;;;7.57;;
37284;SDS011;23172;53.550;9.964;2023-02-28T03:58:39;9.77;;;6.18;;
37284;SDS011;23172;53.550;9.964;2023-02-28T04:03:45;8.80;;;4.97;;
37284;SDS011;23172;53.550;9.964;2023-02-28T04:08:48;6.97;;;4.85;;
37284;SDS011;23172;53.550;9.964;2023-02-28T04:13:50;8.27;;;5.13;;
37284;SDS011;23172;53.550;9.964;2023-02-28T04:18:52;8.18;;;4.85;;
37284;SDS011;23172;53.550;9.964;2023-02-28T04:23:55;6.95;;;5.30;;
37284;SDS011;23172;53.550;9.964;2023-02-28T04:29:00;9.80;;;6.13;;
37284;SDS011;23172;53.550;9.964;2023-02-28T04:34:04;8.02;;;5.43;;
37284;SDS011;23172;53.550;9.964;2023-02-28T04:39:07;6.43;;;4.40;;
37284;SDS011;23172;53.550;9.964;2023-02-28T04:44:10;4.93;;;4.13;;
37284;SDS011;23172;53.550;9.964;2023-02-28T04:49:12;6.22;;;4.05;;
37284;SDS011;23172;53.550;9.964;2023-02-28T04:54:15;6.00;;;4.95;;
37284;SDS011;23172;53.550;9.964;2023-02-28T04:59:18;7.05;;;3.90;;
37284;SDS011;23172;53.550;9.964;2023-02-28T05:04:20;5.38;;;4.03;;
37284;SDS011;23172;53.550;9.964;2023-02-28T05:09:23;6.50;;;3.85;;
37284;SDS011;23172;53.550;9.964;2023-02-28T05:14:25;4.40;;;3.88;;
37284;SDS011;23172;53.550;9.964;2023-02-28T05:19:27;6.72;;;5.43;;
37284;SDS011;23172;53.550;9.964;2023-02-28T05:24:30;6.80;;;4.80;;
37284;SDS011;23172;53.550;9.964;2023-02-28T05:29:32;6.07;;;4.90;;
37284;SDS011;23172;53.550;9.964;2023-02-28T05:34:36;6.00;;;4.82;;
37284;SDS011;23172;53.550;9.964;2023-02-28T05:39:39;8.55;;;6.55;;
37284;SDS011;23172;53.550;9.964;2023-02-28T05:44:41;6.20;;;4.47;;
37284;SDS011;23172;53.550;9.964;2023-02-28T05:49:43;7.30;;;4.90;;
37284;SDS011;23172;53.550;9.964;2023-02-28T05:54:47;10.65;;;5.35;;
37284;SDS011;23172;53.550;9.964;2023-02-28T05:59:49;8.82;;;5.22;;
37284;SDS011;23172;53.550;9.964;2023-02-28T06:04:50;10.57;;;6.70;;
37284;SDS011;23172;53.550;9.964;2023-02-28T06:09:53;11.82;;;6.25;;
37284;SDS011;23172;53.550;9.964;2023-02-28T06:14:55;16.42;;;8.38;;
37284;SDS011;23172;53.550;9.964;2023-02-28T06:19:57;15.93;;;8.88;;
37284;SDS011;23172;53.550;9.964;2023-02-28T06:25:00;19.77;;;9.82;;
37284;SDS011;23172;53.550;9.964;2023-02-28T06:30:02;15.00;;;8.48;;
37284;SDS011;23172;53.550;9.964;2023-02-28T06:35:05;13.35;;;8.63;;
37284;SDS011;23172;53.550;9.964;2023-02-28T06:40:10;17.40;;;9.02;;
37284;SDS011;23172;53.550;9.964;2023-02-28T06:45:13;12.90;;;7.35;;
37284;SDS011;23172;53.550;9.964;2023-02-28T06:50:14;11.55;;;5.85;;
37284;SDS011;23172;53.550;9.964;2023-02-28T06:55:20;9.52;;;5.80;;
37284;SDS011;23172;53.550;9.964;2023-02-28T07:00:22;8.05;;;5.25;;
37284;SDS011;23172;53.550;9.964;2023-02-28T07:05:25;14.90;;;7.75;;
37284;SDS011;23172;53.550;9.964;2023-02-28T07:10:28;7.65;;;4.93;;
37284;SDS011;23172;53.550;9.964;2023-02-28T07:15:30;6.68;;;4.97;;
37284;SDS011;23172;53.550;9.964;2023-02-28T07:20:32;7.50;;;5.38;;
37284;SDS011;23172;53.550;9.964;2023-02-28T07:25:36;7.80;;;4.75;;
37284;SDS011;23172;53.550;9.964;2023-02-28T07:30:38;5.57;;;4.97;;
37284;SDS011;23172;53.550;9.964;2023-02-28T07:35:40;5.65;;;4.63;;
37284;SDS011;23172;53.550;9.964;2023-02-28T07:40:43;7.57;;;5.85;;
37284;SDS011;23172;53.550;9.964;2023-02-28T07:45:45;6.75;;;5.43;;
37284;SDS011;23172;53.550;9.964;2023-02-28T07:50:53;6.05;;;4.90;;
37284;SDS011;23172;53.550;9.964;2023-02-28T07:55:58;7.35;;;5.72;;
37284;SDS011;23172;53.550;9.964;2023-02-28T08:01:04;7.47;;;5.82;;
37284;SDS011;23172;53.550;9.964;2023-02-28T08:06:08;8.23;;;6.03;;
37284;SDS011;23172;53.550;9.964;2023-02-28T08:11:18;7.97;;;5.43;;
37284;SDS011;23172;53.550;9.964;2023-02-28T08:16:20;8.85;;;5.75;;
37284;SDS011;23172;53.550;9.964;2023-02-28T08:21:23;9.00;;;6.10;;
37284;SDS011;23172;53.550;9.964;2023-02-28T08:26:26;9.55;;;6.68;;
37284;SDS011;23172;53.550;9.964;2023-02-28T08:31:28;6.50;;;5.72;;
37284;SDS011;23172;53.550;9.964;2023-02-28T08:36:29;5.55;;;4.65;;
37284;SDS011;23172;53.550;9.964;2023-02-28T08:41:33;5.82;;;4.90;;
37284;SDS011;23172;53.550;9.964;2023-02-28T08:46:35;7.55;;;4.68;;
37284;SDS011;23172;53.550;9.964;2023-02-28T08:51:38;5.95;;;5.18;;
37284;SDS011;23172;53.550;9.964;2023-02-28T08:56:42;7.55;;;5.53;;
37284;SDS011;23172;53.550;9.964;2023-02-28T09:01:44;8.63;;;5.25;;
37284;SDS011;23172;53.550;9.964;2023-02-28T09:06:46;9.75;;;5.80;;
37284;SDS011;23172;53.550;9.964;2023-02-28T09:11:50;5.90;;;4.07;;
37284;SDS011;23172;53.550;9.964;2023-02-28T09:16:51;4.82;;;4.25;;
37284;SDS011;23172;53.550;9.964;2023-02-28T09:21:53;8.48;;;6.82;;
37284;SDS011;23172;53.550;9.964;2023-02-28T09:26:56;6.80;;;5.18;;
37284;SDS011;23172;53.550;9.964;2023-02-28T09:31:59;9.32;;;8.57;;
37284;SDS011;23172;53.550;9.964;2023-02-28T09:37:01;31.40;;;29.33;;
37284;SDS011;23172;53.550;9.964;2023-02-28T09:42:05;21.23;;;19.15;;
37284;SDS011;23172;53.550;9.964;2023-02-28T09:47:10;96.03;;;89.20;;
37284;SDS011;23172;53.550;9.964;2023-02-28T09:52:17;440.95;;;407.25;;
37284;SDS011;23172;53.550;9.964;2023-02-28T09:57:25;92.78;;;86.07;;
37284;SDS011;23172;53.550;9.964;2023-02-28T10:08:10;465.42;;;431.80;;
37284;SDS011;23172;53.550;9.964;2023-02-28T10:13:19;1243.38;;;999.90;;
37284;SDS011;23172;53.550;9.964;2023-02-28T10:18:27;291.58;;;267.88;;
37284;SDS011;23172;53.550;9.964;2023-02-28T10:23:38;667.75;;;617.35;;
37284;SDS011;23172;53.550;9.964;2023-02-28T10:28:41;513.38;;;483.65;;
37284;SDS011;23172;53.550;9.964;2023-02-28T10:33:43;1023.20;;;927.97;;
37284;SDS011;23172;53.550;9.964;2023-02-28T10:38:46;423.58;;;393.48;;
37284;SDS011;23172;53.550;9.964;2023-02-28T10:43:50;386.50;;;358.13;;
37284;SDS011;23172;53.550;9.964;2023-02-28T10:49:00;669.85;;;620.03;;
37284;SDS011;23172;53.550;9.964;2023-02-28T10:54:04;1087.88;;;987.97;;
37284;SDS011;23172;53.550;9.964;2023-02-28T10:59:22;553.63;;;510.85;;
37284;SDS011;23172;53.550;9.964;2023-02-28T11:04:32;974.95;;;883.78;;
37284;SDS011;23172;53.550;9.964;2023-02-28T11:09:38;1046.40;;;946.75;;
37284;SDS011;23172;53.550;9.964;2023-02-28T11:14:46;916.20;;;840.50;;
37284;SDS011;23172;53.550;9.964;2023-02-28T11:19:51;804.40;;;734.65;;
37284;SDS011;23172;53.550;9.964;2023-02-28T11:24:56;1488.32;;;999.90;;
37284;SDS011;23172;53.550;9.964;2023-02-28T11:30:01;1813.05;;;999.90;;
37284;SDS011;23172;53.550;9.964;2023-02-28T11:35:12;1667.40;;;958.15;;
37284;SDS011;23172;53.550;9.964;2023-02-28T11:40:24;1999.90;;;999.90;;
37284;SDS011;23172;53.550;9.964;2023-02-28T11:45:38;1539.93;;;760.95;;
37284;SDS011;23172;53.550;9.964;2023-02-28T11:50:49;1645.80;;;796.08;;
37284;SDS011;23172;53.550;9.964;2023-02-28T11:55:58;714.92;;;288.42;;
37284;SDS011;23172;53.550;9.964;2023-02-28T12:01:15;891.67;;;319.80;;
37284;SDS011;23172;53.550;9.964;2023-02-28T12:06:28;1284.82;;;547.80;;
37284;SDS011;23172;53.550;9.964;2023-02-28T12:11:36;1999.90;;;999.90;;
37284;SDS011;23172;53.550;9.964;2023-02-28T12:16:54;1629.43;;;761.78;;
37284;SDS011;23172;53.550;9.964;2023-02-28T12:22:17;1600.45;;;782.63;;
37284;SDS011;23172;53.550;9.964;2023-02-28T12:27:33;1094.68;;;532.67;;
37284;SDS011;23172;53.550;9.964;2023-02-28T12:32:40;1298.82;;;536.85;;
37284;SDS011;23172;53.550;9.964;2023-02-28T12:37:46;812.22;;;348.50;;
37284;SDS011;23172;53.550;9.964;2023-02-28T12:42:52;878.22;;;361.23;;
37284;SDS011;23172;53.550;9.964;2023-02-28T12:47:59;1866.10;;;893.05;;
37284;SDS011;23172;53.550;9.964;2023-02-28T12:53:06;1901.30;;;872.08;;
37284;SDS011;23172;53.550;9.964;2023-02-28T12:58:12;1090.28;;;509.85;;
37284;SDS011;23172;53.550;9.964;2023-02-28T13:03:27;1459.07;;;750.75;;
37284;SDS011;23172;53.550;9.964;2023-02-28T13:14:22;1185.47;;;530.83;;
37284;SDS011;23172;53.550;9.964;2023-02-28T13:19:28;1279.53;;;607.03;;
37284;SDS011;23172;53.550;9.964;2023-02-28T13:29:50;1595.60;;;785.60;;
37284;SDS011;23172;53.550;9.964;2023-02-28T13:40:30;823.38;;;413.63;;
37284;SDS011;23172;53.550;9.964;2023-02-28T13:45:36;1357.20;;;619.42;;
37284;SDS011;23172;53.550;9.964;2023-02-28T13:50:39;1314.88;;;575.80;;
37284;SDS011;23172;53.550;9.964;2023-02-28T13:55:45;1597.45;;;781.85;;
37284;SDS011;23172;53.550;9.964;2023-02-28T14:00:59;1261.22;;;553.60;;
37284;SDS011;23172;53.550;9.964;2023-02-28T14:06:16;579.55;;;246.48;;
37284;SDS011;23172;53.550;9.964;2023-02-28T14:11:34;1999.90;;;999.90;;
37284;SDS011;23172;53.550;9.964;2023-02-28T14:16:39;1999.90;;;999.90;;
37284;SDS011;23172;53.550;9.964;2023-02-28T14:21:49;1206.13;;;577.53;;
37284;SDS011;23172;53.550;9.964;2023-02-28T14:27:11;955.25;;;377.13;;
37284;SDS011;23172;53.550;9.964;2023-02-28T14:32:39;1179.78;;;511.15;;
37284;SDS011;23172;53.550;9.964;2023-02-28T14:37:46;510.30;;;209.90;;
37284;SDS011;23172;53.550;9.964;2023-02-28T14:42:55;1620.85;;;757.65;;
37284;SDS011;23172;53.550;9.964;2023-02-28T14:47:59;783.65;;;261.77;;
37284;SDS011;23172;53.550;9.964;2023-02-28T14:53:04;956.13;;;390.08;;
37284;SDS011;23172;53.550;9.964;2023-02-28T14:58:21;850.55;;;336.88;;
37284;SDS011;23172;53.550;9.964;2023-02-28T15:03:28;1179.63;;;543.63;;
37284;SDS011;23172;53.550;9.964;2023-02-28T15:08:33;1252.57;;;522.13;;
37284;SDS011;23172;53.550;9.964;2023-02-28T15:13:38;1348.57;;;580.05;;
37284;SDS011;23172;53.550;9.964;2023-02-28T15:18:43;1160.82;;;514.35;;
37284;SDS011;23172;53.550;9.964;2023-02-28T15:23:50;946.08;;;344.70;;
37284;SDS011;23172;53.550;9.964;2023-02-28T15:28:58;1215.50;;;558.33;;
37284;SDS011;23172;53.550;9.964;2023-02-28T15:34:02;1467.03;;;680.13;;
37284;SDS011;23172;53.550;9.964;2023-02-28T15:39:17;1192.45;;;562.05;;
37284;SDS011;23172;53.550;9.964;2023-02-28T15:44:26;651.33;;;244.25;;
37284;SDS011;23172;53.550;9.964;2023-02-28T15:49:32;1144.45;;;465.10;;
37284;SDS011;23172;53.550;9.964;2023-02-28T15:54:39;833.85;;;320.35;;
37284;SDS011;23172;53.550;9.964;2023-02-28T15:59:48;1066.93;;;422.58;;
37284;SDS011;23172;53.550;9.964;2023-02-28T16:04:56;1188.10;;;567.85;;
37284;SDS011;23172;53.550;9.964;2023-02-28T16:10:00;1360.18;;;603.63;;
37284;SDS011;23172;53.550;9.964;2023-02-28T16:15:06;1399.03;;;614.03;;
37284;SDS011;23172;53.550;9.964;2023-02-28T16:20:12;1495.22;;;725.67;;
37284;SDS011;23172;53.550;9.964;2023-02-28T16:25:16;1645.50;;;801.15;;
37284;SDS011;23172;53.550;9.964;2023-02-28T16:30:21;1386.65;;;690.00;;
37284;SDS011;23172;53.550;9.964;2023-02-28T16:35:25;1619.20;;;833.42;;
37284;SDS011;23172;53.550;9.964;2023-02-28T16:40:27;1679.82;;;967.22;;
37284;SDS011;23172;53.550;9.964;2023-02-28T16:45:35;1683.15;;;957.45;;
37284;SDS011;23172;53.550;9.964;2023-02-28T16:50:37;1785.85;;;991.92;;
37284;SDS011;23172;53.550;9.964;2023-02-28T16:55:39;1600.78;;;999.90;;
37284;SDS011;23172;53.550;9.964;2023-02-28T17:00:43;1405.65;;;999.90;;
37284;SDS011;23172;53.550;9.964;2023-02-28T17:05:45;1392.80;;;999.90;;
37284;SDS011;23172;53.550;9.964;2023-02-28T17:10:47;1223.38;;;999.90;;
37284;SDS011;23172;53.550;9.964;2023-02-28T17:15:50;1227.13;;;999.90;;
37284;SDS011;23172;53.550;9.964;2023-02-28T17:20:52;1140.95;;;999.90;;
37284;SDS011;23172;53.550;9.964;2023-02-28T17:25:54;1199.72;;;999.90;;
37284;SDS011;23172;53.550;9.964;2023-02-28T17:30:57;1114.95;;;997.45;;
37284;SDS011;23172;53.550;9.964;2023-02-28T17:35:59;1088.07;;;980.85;;
37284;SDS011;23172;53.550;9.964;2023-02-28T17:41:01;955.65;;;871.90;;
37284;SDS011;23172;53.550;9.964;2023-02-28T17:46:05;954.47;;;878.90;;
37284;SDS011;23172;53.550;9.964;2023-02-28T17:51:08;894.97;;;826.80;;
37284;SDS011;23172;53.550;9.964;2023-02-28T17:56:11;759.60;;;703.60;;
37284;SDS011;23172;53.550;9.964;2023-02-28T18:01:16;639.83;;;597.42;;
37284;SDS011;23172;53.550;9.964;2023-02-28T18:06:18;687.67;;;643.08;;
37284;SDS011;23172;53.550;9.964;2023-02-28T18:11:23;629.67;;;589.40;;
37284;SDS011;23172;53.550;9.964;2023-02-28T18:16:27;564.70;;;529.80;;
37284;SDS011;23172;53.550;9.964;2023-02-28T18:21:29;473.58;;;444.10;;
37284;SDS011;23172;53.550;9.964;2023-02-28T18:26:31;390.90;;;366.48;;
37284;SDS011;23172;53.550;9.964;2023-02-28T18:31:34;426.75;;;402.65;;
37284;SDS011;23172;53.550;9.964;2023-02-28T18:36:36;444.95;;;418.80;;
37284;SDS011;23172;53.550;9.964;2023-02-28T18:41:39;332.65;;;313.83;;
37284;SDS011;23172;53.550;9.964;2023-02-28T18:46:42;337.83;;;317.35;;
37284;SDS011;23172;53.550;9.964;2023-02-28T18:51:44;214.75;;;203.27;;
37284;SDS011;23172;53.550;9.964;2023-02-28T18:56:46;245.45;;;231.10;;
37284;SDS011;23172;53.550;9.964;2023-02-28T19:01:51;248.43;;;234.25;;
37284;SDS011;23172;53.550;9.964;2023-02-28T19:06:53;161.85;;;151.20;;
37284;SDS011;23172;53.550;9.964;2023-02-28T19:11:55;174.23;;;162.98;;
37284;SDS011;23172;53.550;9.964;2023-02-28T19:16:58;134.05;;;124.13;;
37284;SDS011;23172;53.550;9.964;2023-02-28T19:22:00;107.70;;;100.47;;
37284;SDS011;23172;53.550;9.964;2023-02-28T19:27:02;91.85;;;84.53;;
37284;SDS011;23172;53.550;9.964;2023-02-28T19:32:05;111.63;;;104.30;;
37284;SDS011;23172;53.550;9.964;2023-02-28T19:37:07;122.18;;;112.88;;
37284;SDS011;23172;53.550;9.964;2023-02-28T19:42:09;82.05;;;76.13;;
37284;SDS011;23172;53.550;9.964;2023-02-28T19:47:14;113.03;;;104.82;;
37284;SDS011;23172;53.550;9.964;2023-02-28T19:52:16;122.80;;;114.72;;
37284;SDS011;23172;53.550;9.964;2023-02-28T19:57:17;128.65;;;120.78;;
37284;SDS011;23172;53.550;9.964;2023-02-28T20:02:21;126.35;;;117.82;;
37284;SDS011;23172;53.550;9.964;2023-02-28T20:07:23;101.53;;;93.50;;
37284;SDS011;23172;53.550;9.964;2023-02-28T20:12:24;60.15;;;55.72;;
37284;SDS011;23172;53.550;9.964;2023-02-28T20:17:28;39.63;;;36.38;;
37284;SDS011;23172;53.550;9.964;2023-02-28T20:22:30;36.13;;;33.42;;
37284;SDS011;23172;53.550;9.964;2023-02-28T20:27:32;28.73;;;25.98;;
37284;SDS011;23172;53.550;9.964;2023-02-28T20:32:35;27.50;;;24.10;;
37284;SDS011;23172;53.550;9.964;2023-02-28T20:37:38;15.77;;;14.52;;
37284;SDS011;23172;53.550;9.964;2023-02-28T20:42:40;15.68;;;14.38;;
37284;SDS011;23172;53.550;9.964;2023-02-28T20:47:43;18.52;;;16.55;;
37284;SDS011;23172;53.550;9.964;2023-02-28T20:52:45;16.20;;;14.75;;
37284;SDS011;23172;53.550;9.964;2023-02-28T20:57:47;26.83;;;21.38;;
37284;SDS011;23172;53.550;9.964;2023-02-28T21:02:51;23.80;;;19.98;;
37284;SDS011;23172;53.550;9.964;2023-02-28T21:07:53;23.55;;;21.20;;
37284;SDS011;23172;53.550;9.964;2023-02-28T21:12:55;26.98;;;24.40;;
37284;SDS011;23172;53.550;9.964;2023-02-28T21:17:58;25.35;;;23.27;;
37284;SDS011;23172;53.550;9.964;2023-02-28T21:23:00;32.80;;;29.45;;
37284;SDS011;23172;53.550;9.964;2023-02-28T21:28:02;46.47;;;43.05;;
37284;SDS011;23172;53.550;9.964;2023-02-28T21:33:05;63.03;;;57.90;;
37284;SDS011;23172;53.550;9.964;2023-02-28T21:38:07;66.53;;;61.63;;
37284;SDS011;23172;53.550;9.964;2023-02-28T21:43:09;84.78;;;78.18;;
37284;SDS011;23172;53.550;9.964;2023-02-28T21:48:12;103.80;;;95.40;;
37284;SDS011;23172;53.550;9.964;2023-02-28T21:53:14;67.57;;;62.70;;
37284;SDS011;23172;53.550;9.964;2023-02-28T21:58:15;80.57;;;74.50;;
37284;SDS011;23172;53.550;9.964;2023-02-28T22:03:19;78.93;;;72.93;;
37284;SDS011;23172;53.550;9.964;2023-02-28T22:08:21;86.38;;;79.90;;
37284;SDS011;23172;53.550;9.964;2023-02-28T22:13:22;89.65;;;83.00;;
37284;SDS011;23172;53.550;9.964;2023-02-28T22:18:26;127.47;;;118.90;;
37284;SDS011;23172;53.550;9.964;2023-02-28T22:23:27;223.00;;;208.27;;
37284;SDS011;23172;53.550;9.964;2023-02-28T22:28:29;311.73;;;291.08;;
37284;SDS011;23172;53.550;9.964;2023-02-28T22:33:33;219.02;;;204.18;;
37284;SDS011;23172;53.550;9.964;2023-02-28T22:38:35;227.63;;;212.38;;
37284;SDS011;23172;53.550;9.964;2023-02-28T22:43:37;194.60;;;182.85;;
37284;SDS011;23172;53.550;9.964;2023-02-28T22:48:40;229.98;;;214.68;;
37284;SDS011;23172;53.550;9.964;2023-02-28T22:53:43;235.52;;;220.98;;
37284;SDS011;23172;53.550;9.964;2023-02-28T22:58:47;201.25;;;188.45;;
37284;SDS011;23172;53.550;9.964;2023-02-28T23:03:51;180.52;;;169.15;;
37284;SDS011;23172;53.550;9.964;2023-02-28T23:08:54;158.70;;;148.48;;
37284;SDS011;23172;53.550;9.964;2023-02-28T23:13:57;97.15;;;90.30;;
37284;SDS011;23172;53.550;9.964;2023-02-28T23:19:02;80.63;;;74.38;;
37284;SDS011;23172;53.550;9.964;2023-02-28T23:24:07;59.25;;;54.25;;
37284;SDS011;23172;53.550;9.964;2023-02-28T23:29:10;52.67;;;47.40;;
37284;SDS011;23172;53.550;9.964;2023-02-28T23:34:15;53.47;;;50.15;;
37284;SDS011;23172;53.550;9.964;2023-02-28T23:39:24;53.00;;;48.78;;
37284;SDS011;23172;53.550;9.964;2023-02-28T23:44:27;55.58;;;51.30;;
37284;SDS011;23172;53.550;9.964;2023-02-28T23:49:30;43.05;;;40.30;;
37284;SDS011;23172;53.550;9.964;2023-02-28T23:54:32;40.90;;;36.80;;
37284;SDS011;23172;53.550;9.964;2023-02-28T23:59:34;37.08;;;33.53;;
